createdAt,value
2022-10-06T00:03:23.558Z,14.44
2022-10-06T00:08:25.158Z,14.49
2022-10-06T00:13:27.358Z,14.48
2022-10-06T00:18:29.805Z,14.50
2022-10-06T00:23:31.581Z,14.46
2022-10-06T00:28:33.490Z,14.49
2022-10-06T00:33:35.257Z,14.48
2022-10-06T00:38:36.571Z,14.51
2022-10-06T00:43:54.729Z,14.50
2022-10-06T00:48:59.920Z,14.52
2022-10-06T00:54:02.594Z,14.57
2022-10-06T00:59:03.912Z,14.48
2022-10-06T01:04:08.682Z,14.48
2022-10-06T01:09:09.990Z,14.35
2022-10-06T01:14:11.613Z,14.17
2022-10-06T01:19:31.794Z,14.07
2022-10-06T01:24:33.134Z,14.04
2022-10-06T01:29:35.346Z,13.94
2022-10-06T01:34:36.683Z,14.01
2022-10-06T01:39:37.992Z,14.02
2022-10-06T01:44:39.571Z,14.09
2022-10-06T01:49:40.904Z,14.09
2022-10-06T01:54:42.484Z,14.09
2022-10-06T01:59:43.853Z,14.13
2022-10-06T02:04:46.093Z,14.13
2022-10-06T02:09:47.419Z,14.08
2022-10-06T02:14:48.734Z,14.06
2022-10-06T02:19:50.264Z,14.00
2022-10-06T02:24:51.558Z,13.82
2022-10-06T02:29:52.899Z,13.77
2022-10-06T02:34:55.878Z,13.69
2022-10-06T02:39:57.242Z,13.36
2022-10-06T02:44:59.010Z,13.11
2022-10-06T02:50:01.941Z,12.79
2022-10-06T02:55:04.129Z,12.47
2022-10-06T03:00:07.273Z,12.34
2022-10-06T03:05:08.595Z,12.17
2022-10-06T03:10:09.915Z,12.12
2022-10-06T03:15:11.214Z,11.86
2022-10-06T03:20:12.523Z,11.94
2022-10-06T03:25:13.850Z,11.78
2022-10-06T03:30:15.522Z,11.65
2022-10-06T03:35:16.824Z,11.66
2022-10-06T03:40:18.224Z,11.35
2022-10-06T03:45:19.511Z,11.14
2022-10-06T03:50:20.808Z,10.84
2022-10-06T03:55:22.118Z,10.72
2022-10-06T04:00:23.400Z,10.57
2022-10-06T04:05:24.709Z,10.49
2022-10-06T04:10:26.715Z,10.33
2022-10-06T04:15:28.042Z,10.20
2022-10-06T04:20:29.597Z,10.09
2022-10-06T04:25:31.361Z,9.96
2022-10-06T04:30:32.703Z,9.89
2022-10-06T04:35:34.023Z,9.97
2022-10-06T04:40:35.330Z,10.07
2022-10-06T04:45:36.692Z,10.08
2022-10-06T04:50:38.034Z,9.87
2022-10-06T04:55:39.329Z,9.62
2022-10-06T05:00:41.070Z,9.39
2022-10-06T05:05:42.397Z,9.33
2022-10-06T05:10:43.728Z,9.12
2022-10-06T05:15:54.716Z,8.96
2022-10-06T05:21:04.414Z,8.91
2022-10-06T05:26:08.387Z,8.89
2022-10-06T05:31:14.462Z,8.77
2022-10-06T05:36:16.802Z,8.66
2022-10-06T05:41:22.495Z,8.69
2022-10-06T05:46:25.360Z,8.57
2022-10-06T05:51:31.045Z,8.60
2022-10-06T05:56:37.134Z,8.64
2022-10-06T06:01:42.164Z,8.69
2022-10-06T06:06:44.840Z,8.86
2022-10-06T06:11:47.511Z,9.17
2022-10-06T06:16:48.880Z,10.05
2022-10-06T06:21:52.018Z,11.54
2022-10-06T06:26:53.389Z,12.56
2022-10-06T06:31:54.694Z,13.87
2022-10-06T06:37:03.601Z,14.26
2022-10-06T06:42:08.539Z,15.17
2022-10-06T06:47:09.932Z,15.67
2022-10-06T06:52:11.455Z,17.38
2022-10-06T06:57:12.775Z,18.76
2022-10-06T07:02:14.145Z,17.93
2022-10-06T07:07:15.582Z,16.17
2022-10-06T07:12:16.918Z,15.43
2022-10-06T07:17:36.746Z,15.57
2022-10-06T07:22:56.936Z,16.11
2022-10-06T07:27:58.305Z,15.14
2022-10-06T07:32:59.654Z,13.89
2022-10-06T07:38:02.169Z,15.12
2022-10-06T07:43:03.569Z,15.14
2022-10-06T07:48:05.626Z,15.71
2022-10-06T07:53:10.191Z,17.86
2022-10-06T07:58:18.703Z,16.11
2022-10-06T08:03:21.012Z,17.10
2022-10-06T08:08:22.438Z,18.02
2022-10-06T08:13:24.088Z,19.52
2022-10-06T08:18:45.577Z,18.20
2022-10-06T08:23:47.930Z,20.77
2022-10-06T08:28:53.357Z,20.93
2022-10-06T08:33:57.332Z,23.00
2022-10-06T08:38:58.709Z,21.47
2022-10-06T08:44:04.427Z,21.30
2022-10-06T08:49:06.571Z,20.79
2022-10-06T08:54:12.730Z,22.37
2022-10-06T08:59:16.208Z,23.00
2022-10-06T09:04:29.309Z,21.66
2022-10-06T09:09:43.141Z,23.56
2022-10-06T09:14:49.106Z,21.71
2022-10-06T09:19:55.251Z,24.46
2022-10-06T09:25:08.703Z,26.95
2022-10-06T09:30:13.339Z,24.63
2022-10-06T09:35:19.392Z,25.20
2022-10-06T09:40:38.841Z,25.53
2022-10-06T09:45:40.152Z,25.56
2022-10-06T09:50:42.480Z,23.81
2022-10-06T09:55:45.684Z,25.64
2022-10-06T10:00:57.791Z,23.34
2022-10-06T10:06:02.159Z,25.32
2022-10-06T10:11:29.570Z,25.89
2022-10-06T10:16:34.353Z,26.12
2022-10-06T10:21:37.055Z,23.52
2022-10-06T10:27:04.810Z,25.09
2022-10-06T10:32:12.691Z,26.58
2022-10-06T10:37:16.310Z,24.34
2022-10-06T10:42:21.743Z,26.72
2022-10-06T10:47:25.931Z,27.03
2022-10-06T10:52:30.453Z,25.30
2022-10-06T10:57:37.115Z,23.63
2022-10-06T11:02:40.179Z,24.00
2022-10-06T11:08:01.468Z,25.96
2022-10-06T11:13:10.224Z,27.47
2022-10-06T11:18:30.144Z,25.30
2022-10-06T11:23:31.428Z,24.63
2022-10-06T11:28:39.326Z,27.51
2022-10-06T11:33:50.428Z,26.76
2022-10-06T11:38:56.490Z,27.02
2022-10-06T11:44:13.641Z,25.51
2022-10-06T11:49:30.130Z,26.60
2022-10-06T11:54:40.371Z,26.01
2022-10-06T11:59:41.962Z,27.09
2022-10-06T12:05:03.210Z,27.69
2022-10-06T12:10:23.340Z,26.69
2022-10-06T12:21:06.199Z,25.97
2022-10-06T12:26:17.253Z,24.68
2022-10-06T12:31:18.741Z,23.88
2022-10-06T12:36:22.899Z,25.39
2022-10-06T12:41:44.469Z,24.82
2022-10-06T12:46:46.837Z,23.77
2022-10-06T12:51:51.363Z,23.21
2022-10-06T12:56:58.922Z,23.30
2022-10-06T13:02:12.832Z,23.50
2022-10-06T13:07:22.333Z,23.40
2022-10-06T13:12:25.536Z,23.26
2022-10-06T13:17:26.864Z,22.48
2022-10-06T13:22:28.201Z,22.72
2022-10-06T13:27:29.564Z,22.08
2022-10-06T13:32:30.878Z,22.39
2022-10-06T13:37:32.337Z,22.81
2022-10-06T13:42:33.683Z,23.46
2022-10-06T13:47:35.006Z,23.28
2022-10-06T13:52:38.087Z,23.41
2022-10-06T13:57:39.482Z,22.93
2022-10-06T14:02:41.769Z,22.45
2022-10-06T14:07:43.941Z,21.63
2022-10-06T14:12:46.035Z,22.57
2022-10-06T14:17:56.296Z,22.31
2022-10-06T14:22:57.595Z,22.41
2022-10-06T14:27:58.932Z,21.28
2022-10-06T14:33:00.259Z,20.36
2022-10-06T14:38:01.615Z,19.71
2022-10-06T14:43:02.970Z,19.69
2022-10-06T14:48:04.536Z,19.53
2022-10-06T14:53:05.916Z,19.46
2022-10-06T14:58:07.259Z,19.10
2022-10-06T15:03:08.636Z,18.90
2022-10-06T15:08:10.464Z,18.60
2022-10-06T15:13:11.782Z,18.55
2022-10-06T15:18:14.093Z,18.26
2022-10-06T15:23:15.487Z,18.08
2022-10-06T15:28:35.508Z,17.84
2022-10-06T15:33:36.892Z,17.65
2022-10-06T15:38:38.194Z,17.46
2022-10-06T15:43:55.118Z,17.31
2022-10-06T15:49:01.203Z,17.42
2022-10-06T15:54:02.570Z,17.27
2022-10-06T15:59:04.551Z,17.26
2022-10-06T16:04:12.402Z,17.32
2022-10-06T16:09:13.767Z,17.06
2022-10-06T16:14:15.599Z,16.61
2022-10-06T16:19:17.649Z,16.20
2022-10-06T16:24:19.869Z,15.92
2022-10-06T16:29:21.674Z,15.68
2022-10-06T16:34:23.110Z,15.34
2022-10-06T16:39:24.604Z,14.93
2022-10-06T16:44:25.954Z,14.44
2022-10-06T16:49:28.239Z,13.97
2022-10-06T16:54:29.624Z,13.52
2022-10-06T16:59:30.951Z,13.32
2022-10-06T17:04:32.252Z,13.34
2022-10-06T17:09:33.577Z,13.18
2022-10-06T17:14:35.527Z,13.02
2022-10-06T17:19:36.835Z,12.72
2022-10-06T17:24:38.198Z,12.46
2022-10-06T17:29:39.544Z,12.20
2022-10-06T17:34:40.854Z,11.98
2022-10-06T17:39:46.834Z,11.54
2022-10-06T17:44:48.591Z,11.56
2022-10-06T17:49:49.949Z,11.53
2022-10-06T17:54:52.071Z,11.40
2022-10-06T17:59:53.564Z,10.99
2022-10-06T18:04:54.904Z,10.95
2022-10-06T18:10:14.870Z,10.73
2022-10-06T18:15:16.297Z,10.57
2022-10-06T18:20:17.592Z,10.66
2022-10-06T18:25:24.438Z,10.44
2022-10-06T18:30:29.391Z,10.25
2022-10-06T18:40:54.443Z,9.89
2022-10-06T18:46:14.665Z,9.79
2022-10-06T18:51:16.190Z,9.65
2022-10-06T18:56:17.498Z,9.57
2022-10-06T19:01:19.525Z,9.15
2022-10-06T19:06:21.355Z,9.17
2022-10-06T19:11:41.685Z,9.16
2022-10-06T19:16:43.378Z,9.09
2022-10-06T19:21:46.946Z,8.96
2022-10-06T19:26:49.882Z,8.91
2022-10-06T19:31:52.672Z,8.68
2022-10-06T19:36:54.397Z,8.56
2022-10-06T19:42:14.683Z,8.49
2022-10-06T19:47:16.029Z,8.41
2022-10-06T19:52:17.398Z,8.28
2022-10-06T19:57:18.742Z,8.23
2022-10-06T20:02:20.340Z,8.17
2022-10-06T20:07:25.316Z,8.01
2022-10-06T20:12:28.271Z,7.93
2022-10-06T20:17:29.595Z,7.90
2022-10-06T20:22:31.739Z,7.80
2022-10-06T20:27:33.116Z,7.74
2022-10-06T20:32:34.783Z,7.62
2022-10-06T20:37:38.287Z,7.60
2022-10-06T20:42:44.697Z,7.47
2022-10-06T20:47:47.785Z,7.41
2022-10-06T20:52:49.191Z,7.36
2022-10-06T20:57:50.770Z,7.29
2022-10-06T21:02:52.489Z,7.22
2022-10-06T21:07:54.050Z,7.08
2022-10-06T21:12:55.948Z,6.99
2022-10-06T21:17:57.447Z,6.91
2022-10-06T21:22:58.956Z,6.81
2022-10-06T21:28:00.481Z,6.80
2022-10-06T21:33:02.014Z,6.71
2022-10-06T21:38:03.912Z,6.65
2022-10-06T21:43:05.468Z,6.61
2022-10-06T21:48:07.000Z,6.59
2022-10-06T21:53:08.549Z,6.48
2022-10-06T21:58:10.063Z,6.36
2022-10-06T22:03:11.664Z,6.31
2022-10-06T22:08:13.479Z,6.28
2022-10-06T22:13:14.978Z,6.24
2022-10-06T22:18:16.478Z,6.15
2022-10-06T22:23:17.983Z,6.09
2022-10-06T22:28:20.880Z,6.00
2022-10-06T22:33:22.927Z,5.96
2022-10-06T22:38:24.507Z,5.90
2022-10-06T22:43:25.993Z,5.82
2022-10-06T22:48:27.895Z,5.74
2022-10-06T22:53:31.363Z,5.68
2022-10-06T22:58:32.936Z,5.64
2022-10-06T23:03:34.469Z,5.61
2022-10-06T23:08:37.237Z,5.60
2022-10-06T23:13:39.039Z,5.56
2022-10-06T23:18:41.203Z,5.52
2022-10-06T23:23:42.711Z,5.55
2022-10-06T23:28:44.679Z,5.45
2022-10-06T23:33:46.361Z,5.36
2022-10-06T23:38:47.927Z,5.27
2022-10-06T23:43:49.796Z,5.23
2022-10-06T23:48:51.341Z,5.14
2022-10-06T23:53:52.968Z,5.08
2022-10-06T23:58:54.451Z,5.05
